Time;durP1;ratioP1;P1;durP2;ratioP2;P2;SDS_P1;SDS_P2;PMS_P1;PMS_P2;Temp;Humidity;BMP_temperature;BMP_pressure;BME280_temperature;BME280_humidity;BME280_pressure;Samples;Min_cycle;Max_cycle;Signal;HPM_P1;HPM_P2
2021/03/30 00:02:23;;;;;;;21.95;9.43;;;13.60;46.60;;;;;;5039840;28;20041;-72
2021/03/30 00:04:49;;;;;;;16.50;9.18;;;13.50;46.70;;;;;;5038016;28;20045;-72
2021/03/30 00:07:17;;;;;;;19.60;8.27;;;13.50;46.90;;;;;;5037795;28;20045;-72
2021/03/30 00:09:43;;;;;;;15.82;8.88;;;13.60;47.10;;;;;;5041538;28;20045;-72
2021/03/30 00:12:11;;;;;;;15.15;7.10;;;13.80;46.60;;;;;;5039842;28;20057;-72
2021/03/30 00:14:37;;;;;;;14.25;7.00;;;13.40;47.40;;;;;;5039798;28;20037;-72
2021/03/30 00:17:05;;;;;;;13.30;6.90;;;13.30;48.00;;;;;;5043906;28;20403;-72
2021/03/30 00:19:31;;;;;;;16.83;7.22;;;13.30;48.10;;;;;;5042595;28;20482;-72
2021/03/30 00:21:58;;;;;;;11.52;6.78;;;13.50;47.60;;;;;;5044655;28;20057;-73
2021/03/30 00:24:24;;;;;;;12.43;6.85;;;13.50;47.50;;;;;;5037666;28;20088;-72
2021/03/30 00:26:50;;;;;;;22.85;7.75;;;13.40;47.50;;;;;;5039262;28;20095;-71
2021/03/30 00:29:16;;;;;;;14.32;6.80;;;13.40;47.80;;;;;;5045219;28;20111;-71
2021/03/30 00:31:43;;;;;;;15.73;7.00;;;13.30;48.10;;;;;;5039329;28;20128;-71
2021/03/30 00:34:09;;;;;;;12.32;6.45;;;13.50;48.00;;;;;;5045714;28;20056;-72
2021/03/30 00:36:35;;;;;;;14.35;6.15;;;13.20;48.20;;;;;;5040341;28;20045;-72
2021/03/30 00:39:03;;;;;;;13.15;6.75;;;13.20;48.60;;;;;;5041479;28;20076;-72
2021/03/30 00:41:29;;;;;;;15.82;6.97;;;13.10;48.70;;;;;;5034971;28;20053;-72
2021/03/30 00:43:55;;;;;;;13.45;7.03;;;12.80;49.00;;;;;;5040814;28;20081;-72
2021/03/30 00:46:23;;;;;;;14.43;7.15;;;12.70;49.30;;;;;;5039277;28;20362;-72
2021/03/30 00:48:50;;;;;;;14.90;7.13;;;12.60;49.70;;;;;;5038932;28;20196;-72
2021/03/30 00:51:18;;;;;;;12.57;5.85;;;12.60;50.30;;;;;;5044560;28;20084;-72
2021/03/30 00:53:45;;;;;;;13.73;6.03;;;12.60;50.20;;;;;;5040077;28;20103;-72
2021/03/30 00:56:12;;;;;;;14.05;6.28;;;12.70;49.80;;;;;;5037534;28;20079;-72
2021/03/30 00:58:39;;;;;;;17.23;6.35;;;12.60;50.20;;;;;;5040944;28;20120;-72
2021/03/30 01:01:05;;;;;;;12.10;6.88;;;12.50;50.50;;;;;;5033978;28;20065;-72
2021/03/30 01:03:31;;;;;;;19.02;6.85;;;12.60;50.40;;;;;;5043485;28;20057;-72
2021/03/30 01:05:58;;;;;;;15.43;6.78;;;12.60;50.00;;;;;;5043397;28;20052;-73
2021/03/30 01:08:58;;;;;;;16.02;5.53;;;12.70;49.90;;;;;;5037616;28;20516;-72
2021/03/30 01:11:30;;;;;;;11.77;5.15;;;13.00;49.10;;;;;;5043175;28;20049;-75
2021/03/30 01:14:04;;;;;;;12.80;5.72;;;13.00;48.60;;;;;;5043346;28;20439;-72
2021/03/30 01:16:38;;;;;;;10.45;5.30;;;13.00;48.90;;;;;;5043450;28;20091;-73
2021/03/30 01:19:21;;;;;;;8.27;5.03;;;12.80;49.10;;;;;;5039027;28;20041;-73
2021/03/30 01:22:15;;;;;;;10.57;4.70;;;12.60;49.70;;;;;;5037601;28;20392;-73
2021/03/30 01:25:05;;;;;;;9.38;5.55;;;12.50;50.20;;;;;;5048001;28;20053;-72
2021/03/30 01:27:44;;;;;;;12.30;5.50;;;12.30;50.40;;;;;;5043048;28;20037;-72
2021/03/30 01:30:15;;;;;;;10.23;4.57;;;12.40;50.30;;;;;;5045546;28;20052;-72
2021/03/30 01:32:46;;;;;;;14.05;4.63;;;12.50;49.90;;;;;;5058181;28;20497;-72
2021/03/30 01:35:17;;;;;;;6.13;4.20;;;12.60;50.00;;;;;;5047696;28;20083;-72
2021/03/30 01:37:46;;;;;;;13.52;4.50;;;12.70;49.70;;;;;;5049166;28;20491;-72
2021/03/30 01:40:15;;;;;;;12.23;5.30;;;12.80;49.40;;;;;;5046979;28;20053;-73
2021/03/30 01:42:45;;;;;;;16.83;5.80;;;12.70;49.20;;;;;;5052662;28;20049;-72
2021/03/30 01:45:15;;;;;;;12.18;5.57;;;12.70;49.60;;;;;;5041436;28;20050;-72
2021/03/30 01:47:43;;;;;;;11.35;5.70;;;12.80;49.60;;;;;;5074015;28;20049;-72
2021/03/30 01:50:11;;;;;;;12.32;5.10;;;12.80;50.10;;;;;;5048288;28;20184;-72
2021/03/30 01:52:38;;;;;;;12.80;5.10;;;12.60;49.70;;;;;;5039669;28;20118;-72
2021/03/30 01:55:12;;;;;;;11.52;4.70;;;12.40;50.40;;;;;;5051636;28;20448;-72
2021/03/30 01:57:40;;;;;;;14.60;5.25;;;12.60;50.20;;;;;;5044763;28;20048;-72
2021/03/30 02:00:08;;;;;;;9.63;5.38;;;12.50;50.30;;;;;;5042299;28;20037;-72
2021/03/30 02:02:35;;;;;;;25.23;8.65;;;12.20;51.00;;;;;;5048167;28;20045;-72
2021/03/30 02:05:04;;;;;;;30.27;13.10;;;12.00;51.20;;;;;;5049583;28;20052;-73
2021/03/30 02:07:31;;;;;;;22.38;10.38;;;12.00;51.10;;;;;;5042973;28;20111;-73
2021/03/30 02:09:59;;;;;;;20.38;9.15;;;12.30;51.10;;;;;;5045668;28;20065;-72
2021/03/30 02:12:35;;;;;;;23.40;9.30;;;12.30;50.60;;;;;;5050487;28;20094;-72
2021/03/30 02:15:02;;;;;;;23.02;9.15;;;12.20;50.80;;;;;;5049891;28;20467;-73
2021/03/30 02:17:46;;;;;;;21.77;9.57;;;12.20;51.10;;;;;;5041015;28;20110;-73
2021/03/30 02:20:19;;;;;;;17.35;7.47;;;12.10;51.20;;;;;;5049585;28;20443;-73
2021/03/30 02:22:50;;;;;;;17.55;6.80;;;11.90;51.90;;;;;;5047752;28;20084;-72
2021/03/30 02:25:19;;;;;;;15.27;7.50;;;11.80;52.40;;;;;;5050326;28;20044;-73
2021/03/30 02:27:48;;;;;;;18.90;8.80;;;12.10;52.10;;;;;;5046745;28;20460;-73
2021/03/30 02:30:16;;;;;;;15.45;8.30;;;12.10;51.40;;;;;;5047238;28;20488;-72
2021/03/30 02:32:45;;;;;;;16.25;7.88;;;12.10;51.20;;;;;;5039380;28;20057;-72
2021/03/30 02:35:13;;;;;;;22.15;8.27;;;12.20;51.00;;;;;;5037112;28;20131;-72
2021/03/30 02:37:41;;;;;;;20.23;7.35;;;12.10;51.30;;;;;;5044168;28;20106;-72
2021/03/30 02:40:11;;;;;;;15.40;7.25;;;12.20;51.20;;;;;;5039788;28;20396;-72
2021/03/30 02:42:40;;;;;;;15.38;6.88;;;12.10;51.60;;;;;;5043808;28;20095;-72
2021/03/30 02:45:10;;;;;;;14.73;6.13;;;11.90;51.90;;;;;;5043307;28;20494;-72
2021/03/30 02:47:38;;;;;;;13.67;6.03;;;11.80;52.40;;;;;;5046470;28;20091;-72
2021/03/30 02:50:06;;;;;;;12.20;6.40;;;11.50;52.90;;;;;;5039315;28;20640;-72
2021/03/30 02:52:33;;;;;;;13.77;6.50;;;11.50;53.20;;;;;;5037950;28;20069;-72
2021/03/30 02:55:02;;;;;;;25.10;7.50;;;11.60;53.10;;;;;;5044225;28;20053;-72
2021/03/30 02:57:30;;;;;;;22.73;6.55;;;11.50;53.40;;;;;;5041808;28;20045;-71
2021/03/30 02:59:57;;;;;;;13.65;6.50;;;11.70;53.30;;;;;;5044964;28;20196;-72
2021/03/30 03:02:25;;;;;;;15.00;6.80;;;11.80;52.80;;;;;;5038769;28;20094;-72
2021/03/30 03:04:55;;;;;;;14.43;6.47;;;11.60;53.00;;;;;;5042574;28;20482;-72
2021/03/30 03:07:22;;;;;;;14.45;6.63;;;11.40;53.30;;;;;;5051776;28;20049;-73
2021/03/30 03:09:49;;;;;;;14.30;6.60;;;11.40;53.50;;;;;;5042768;28;20057;-74
2021/03/30 03:12:17;;;;;;;13.32;6.43;;;11.40;53.40;;;;;;5038577;28;20152;-73
2021/03/30 03:14:46;;;;;;;12.73;5.65;;;11.50;53.50;;;;;;5033159;28;20049;-73
2021/03/30 03:17:13;;;;;;;17.73;6.40;;;11.60;53.30;;;;;;5047074;28;20500;-74
2021/03/30 03:19:43;;;;;;;11.48;5.90;;;11.40;53.20;;;;;;5038502;28;20090;-74
2021/03/30 03:22:09;;;;;;;17.13;5.97;;;11.20;53.80;;;;;;5033951;28;20447;-74
2021/03/30 03:24:36;;;;;;;16.17;7.15;;;11.10;53.90;;;;;;5041834;28;20541;-74
2021/03/30 03:27:03;;;;;;;17.33;7.32;;;11.10;54.80;;;;;;5047998;28;20111;-74
2021/03/30 03:29:30;;;;;;;14.98;6.45;;;11.00;54.40;;;;;;5045702;28;20123;-73
2021/03/30 03:31:56;;;;;;;17.98;6.75;;;11.00;53.40;;;;;;5037710;28;20079;-73
2021/03/30 03:34:23;;;;;;;14.93;6.55;;;11.10;53.90;;;;;;5044295;28;20095;-73
2021/03/30 03:36:50;;;;;;;17.05;6.60;;;11.30;53.90;;;;;;5037949;28;20076;-73
2021/03/30 03:39:18;;;;;;;15.32;6.40;;;11.50;53.20;;;;;;5038544;28;20045;-72
2021/03/30 03:41:46;;;;;;;13.18;6.07;;;11.50;53.40;;;;;;5045864;28;20171;-74
2021/03/30 03:44:13;;;;;;;15.65;6.70;;;11.50;53.30;;;;;;5048990;28;20041;-73
2021/03/30 03:46:40;;;;;;;13.43;5.63;;;11.30;53.70;;;;;;5037568;28;20072;-73
2021/03/30 03:49:07;;;;;;;11.27;5.25;;;11.40;53.30;;;;;;5038834;28;20469;-73
2021/03/30 03:51:44;;;;;;;10.07;4.90;;;11.50;52.90;;;;;;5043739;28;20072;-73
2021/03/30 03:54:13;;;;;;;12.50;5.13;;;11.50;52.30;;;;;;5037474;28;20076;-73
2021/03/30 03:56:45;;;;;;;12.07;5.13;;;11.50;52.10;;;;;;5038804;28;20052;-73
2021/03/30 03:59:28;;;;;;;13.27;4.88;;;11.50;52.30;;;;;;5076237;28;20526;-73
2021/03/30 04:02:23;;;;;;;10.85;4.35;;;11.40;53.30;;;;;;5046977;28;20114;-73
2021/03/30 04:05:03;;;;;;;12.02;4.53;;;11.50;52.50;;;;;;5044841;28;20150;-73
2021/03/30 04:07:40;;;;;;;11.65;4.40;;;11.30;52.90;;;;;;5054446;28;20083;-74
2021/03/30 04:10:09;;;;;;;15.13;6.85;;;11.20;53.10;;;;;;5040017;28;20099;-74
2021/03/30 04:12:38;;;;;;;16.80;6.60;;;11.30;52.70;;;;;;5038655;28;20431;-73
2021/03/30 04:15:07;;;;;;;7.65;5.07;;;11.30;53.10;;;;;;5041641;28;20049;-73
2021/03/30 04:17:33;;;;;;;10.98;6.00;;;11.20;53.20;;;;;;5044022;28;20053;-73
2021/03/30 04:20:10;;;;;;;15.88;8.05;;;11.10;53.70;;;;;;5030581;28;20081;-73
2021/03/30 04:22:38;;;;;;;20.40;9.90;;;11.20;53.40;;;;;;5040608;28;20068;-72
2021/03/30 04:25:05;;;;;;;22.48;10.90;;;11.30;53.30;;;;;;5038262;28;20107;-72
2021/03/30 04:27:32;;;;;;;24.15;11.73;;;11.20;53.50;;;;;;5045770;28;20085;-71
2021/03/30 04:29:59;;;;;;;27.00;10.88;;;11.10;53.70;;;;;;5043692;28;20103;-74
2021/03/30 04:32:25;;;;;;;25.13;10.13;;;10.90;53.90;;;;;;5038943;28;20126;-74
2021/03/30 04:34:52;;;;;;;21.85;11.10;;;10.90;54.70;;;;;;5043675;28;20053;-72
2021/03/30 04:37:19;;;;;;;17.60;10.35;;;11.00;54.10;;;;;;5035698;28;20128;-74
2021/03/30 04:39:45;;;;;;;17.73;10.57;;;11.10;53.90;;;;;;5035080;28;20049;-74
2021/03/30 04:42:12;;;;;;;28.80;10.75;;;11.10;54.00;;;;;;5043878;28;20073;-74
2021/03/30 04:44:38;;;;;;;20.27;9.98;;;10.90;54.20;;;;;;5040660;28;20562;-71
2021/03/30 04:47:05;;;;;;;22.73;10.77;;;10.80;54.70;;;;;;5039227;28;20107;-74
2021/03/30 04:49:31;;;;;;;24.90;13.80;;;10.70;54.70;;;;;;5039891;28;20079;-72
2021/03/30 04:51:58;;;;;;;27.10;13.23;;;10.70;54.60;;;;;;5044194;28;20707;-74
2021/03/30 04:54:24;;;;;;;27.48;14.13;;;10.90;54.50;;;;;;5044456;28;20041;-73
2021/03/30 04:56:51;;;;;;;33.25;16.75;;;10.90;54.70;;;;;;5035860;28;20145;-75
2021/03/30 04:59:17;;;;;;;25.48;12.93;;;10.70;54.50;;;;;;5038388;28;20045;-74
2021/03/30 05:01:44;;;;;;;30.45;14.38;;;10.60;55.30;;;;;;5036593;28;20048;-74
2021/03/30 05:04:10;;;;;;;30.58;16.80;;;10.90;54.90;;;;;;5040063;28;20065;-74
2021/03/30 05:06:36;;;;;;;43.97;18.88;;;10.90;54.40;;;;;;5044382;28;20103;-73
2021/03/30 05:09:03;;;;;;;40.33;19.95;;;10.90;54.30;;;;;;5036702;28;20053;-72
2021/03/30 05:11:30;;;;;;;43.85;17.17;;;11.00;54.20;;;;;;5038157;28;20128;-74
2021/03/30 05:13:56;;;;;;;39.13;18.65;;;10.90;54.90;;;;;;5040730;28;20098;-74
2021/03/30 05:16:22;;;;;;;42.13;20.67;;;11.00;54.50;;;;;;5038260;28;20049;-74
2021/03/30 05:18:49;;;;;;;41.17;18.85;;;10.80;54.70;;;;;;5039072;28;20045;-74
2021/03/30 05:21:17;;;;;;;30.73;15.95;;;10.80;54.90;;;;;;5035980;28;20485;-74
2021/03/30 05:23:44;;;;;;;25.55;12.23;;;10.80;55.00;;;;;;5045981;28;20107;-75
2021/03/30 05:26:11;;;;;;;22.00;10.48;;;10.90;54.70;;;;;;5041857;28;20045;-74
2021/03/30 05:28:37;;;;;;;19.20;9.88;;;10.80;54.70;;;;;;5035460;28;20128;-74
2021/03/30 05:31:03;;;;;;;24.17;9.90;;;10.60;55.20;;;;;;5036422;28;20081;-75
2021/03/30 05:33:30;;;;;;;25.80;9.57;;;10.50;55.70;;;;;;5035850;28;20092;-74
2021/03/30 05:35:56;;;;;;;17.95;9.90;;;10.60;56.10;;;;;;5041946;28;20057;-73
2021/03/30 05:38:22;;;;;;;24.75;10.43;;;10.50;55.90;;;;;;5038823;28;20461;-72
2021/03/30 05:40:49;;;;;;;20.60;9.90;;;10.50;56.20;;;;;;5038885;28;20064;-74
2021/03/30 05:43:17;;;;;;;17.58;9.13;;;10.40;56.40;;;;;;5038076;28;20058;-73
2021/03/30 05:45:44;;;;;;;19.77;9.18;;;10.70;56.20;;;;;;5042578;28;20080;-74
2021/03/30 05:48:12;;;;;;;21.13;11.20;;;10.70;55.70;;;;;;5040597;28;20111;-74
2021/03/30 05:50:39;;;;;;;23.75;11.00;;;10.80;55.70;;;;;;5040703;28;20930;-74
2021/03/30 05:53:08;;;;;;;28.60;10.23;;;10.90;55.70;;;;;;5039017;28;20059;-75
2021/03/30 05:55:37;;;;;;;23.65;9.23;;;11.50;54.90;;;;;;5038335;28;20057;-75
2021/03/30 05:58:05;;;;;;;28.75;9.50;;;12.10;53.70;;;;;;5037839;28;20045;-74
2021/03/30 06:00:37;;;;;;;17.95;9.05;;;12.00;53.10;;;;;;5038617;28;20421;-74
2021/03/30 06:03:06;;;;;;;22.80;8.30;;;12.90;52.60;;;;;;5043632;28;20443;-75
2021/03/30 06:05:34;;;;;;;17.90;7.13;;;13.50;51.30;;;;;;5042175;28;20049;-75
2021/03/30 06:08:02;;;;;;;20.02;7.30;;;13.80;50.20;;;;;;5038661;28;20649;-74
2021/03/30 06:10:31;;;;;;;19.80;6.97;;;14.00;49.90;;;;;;5039138;28;20539;-76
2021/03/30 06:12:59;;;;;;;18.50;7.20;;;14.10;49.60;;;;;;5048222;28;20052;-75
2021/03/30 06:15:33;;;;;;;23.77;7.03;;;14.40;49.40;;;;;;5041256;28;20172;-75
2021/03/30 06:18:15;;;;;;;13.98;7.25;;;14.60;48.60;;;;;;5048309;28;20414;-74
2021/03/30 06:20:41;;;;;;;19.95;6.78;;;14.60;47.90;;;;;;5039773;28;20115;-73
2021/03/30 06:23:08;;;;;;;23.70;6.80;;;14.50;48.40;;;;;;5046913;28;20103;-74
2021/03/30 06:25:36;;;;;;;29.25;8.18;;;14.60;48.60;;;;;;5042980;28;20045;-76
2021/03/30 06:28:20;;;;;;;26.67;7.80;;;14.90;47.80;;;;;;5048866;28;20045;-75
2021/03/30 06:31:08;;;;;;;18.35;6.72;;;14.90;47.40;;;;;;5041648;28;20377;-75
2021/03/30 06:33:44;;;;;;;12.48;6.25;;;14.90;47.40;;;;;;5036925;28;20106;-75
2021/03/30 06:36:16;;;;;;;23.33;7.38;;;14.90;47.30;;;;;;5041165;28;20115;-76
2021/03/30 06:38:56;;;;;;;21.67;7.20;;;14.50;47.60;;;;;;5042055;28;20077;-75
2021/03/30 06:46:50;;;;;;;25.67;7.22;;;13.30;50.00;;;;;;5041602;28;20076;-75
2021/03/30 06:49:20;;;;;;;24.55;7.60;;;13.50;50.10;;;;;;5033733;28;20053;-75
2021/03/30 06:51:47;;;;;;;26.65;8.60;;;13.50;49.50;;;;;;5038839;28;20053;-73
2021/03/30 06:54:14;;;;;;;20.42;7.55;;;13.30;50.00;;;;;;5046998;28;20507;-73
2021/03/30 06:56:56;;;;;;;32.08;7.97;;;14.50;48.70;;;;;;5050460;28;20065;-73
2021/03/30 06:59:24;;;;;;;21.85;7.72;;;15.60;46.70;;;;;;5047434;28;20053;-73
2021/03/30 07:01:53;;;;;;;33.88;9.05;;;15.10;47.50;;;;;;5047209;28;20049;-73
2021/03/30 07:04:20;;;;;;;21.02;9.70;;;14.10;48.30;;;;;;5042697;28;20076;-74
2021/03/30 07:06:54;;;;;;;33.03;9.13;;;14.80;47.20;;;;;;5046974;28;20111;-73
2021/03/30 07:09:21;;;;;;;24.00;8.38;;;15.00;47.90;;;;;;5047854;28;20052;-73
2021/03/30 07:11:49;;;;;;;18.30;6.80;;;15.90;45.90;;;;;;5046901;28;20056;-73
2021/03/30 07:14:21;;;;;;;25.45;7.03;;;17.90;44.00;;;;;;5050477;28;20067;-73
2021/03/30 07:16:56;;;;;;;20.33;7.90;;;18.90;41.20;;;;;;5047341;28;20122;-74
2021/03/30 07:19:28;;;;;;;20.33;6.55;;;18.80;41.00;;;;;;5046248;28;20044;-75
2021/03/30 07:22:09;;;;;;;29.35;7.32;;;17.50;42.20;;;;;;5048317;28;20049;-74
2021/03/30 07:24:52;;;;;;;14.18;6.53;;;17.00;42.20;;;;;;5043181;28;20056;-73
2021/03/30 07:27:27;;;;;;;21.38;8.57;;;17.60;42.90;;;;;;5048714;28;20848;-73
2021/03/30 07:29:57;;;;;;;17.30;6.60;;;18.80;40.90;;;;;;5040255;28;20144;-72
2021/03/30 07:32:41;;;;;;;18.40;6.85;;;18.10;40.60;;;;;;5045425;28;20060;-74
2021/03/30 07:35:17;;;;;;;14.18;6.68;;;16.90;42.40;;;;;;5045453;28;20551;-73
2021/03/30 07:37:54;;;;;;;17.58;6.22;;;17.50;42.60;;;;;;5048725;28;20593;-74
2021/03/30 07:40:21;;;;;;;19.20;7.05;;;17.10;42.90;;;;;;5044916;28;20164;-73
2021/03/30 07:42:49;;;;;;;17.90;6.70;;;15.30;43.80;;;;;;5049283;28;20469;-73
2021/03/30 07:45:21;;;;;;;24.23;6.95;;;14.80;46.00;;;;;;5046291;28;20547;-74
2021/03/30 07:47:48;;;;;;;16.92;6.75;;;15.00;46.10;;;;;;5045518;28;20060;-74
2021/03/30 07:50:17;;;;;;;17.23;8.00;;;16.10;44.80;;;;;;5049028;28;20492;-73
2021/03/30 07:52:48;;;;;;;16.77;7.65;;;15.60;44.90;;;;;;5045121;28;20546;-73
2021/03/30 07:55:27;;;;;;;24.92;9.73;;;15.50;45.40;;;;;;5039591;28;20048;-74
2021/03/30 07:58:10;;;;;;;16.25;9.05;;;16.00;45.30;;;;;;5047768;28;20140;-74
2021/03/30 08:00:39;;;;;;;21.10;9.57;;;16.60;44.80;;;;;;5045862;28;20479;-73
2021/03/30 08:03:08;;;;;;;22.67;10.85;;;16.60;44.30;;;;;;5047295;28;20479;-74
2021/03/30 08:05:35;;;;;;;24.25;11.27;;;16.10;45.10;;;;;;5049101;28;20044;-73
2021/03/30 08:08:20;;;;;;;26.60;11.73;;;16.10;45.40;;;;;;5048724;28;20053;-74
2021/03/30 08:10:49;;;;;;;28.13;11.13;;;16.90;44.70;;;;;;5048999;28;20044;-73
2021/03/30 08:13:33;;;;;;;23.38;9.52;;;18.10;42.90;;;;;;5038607;28;20488;-73
2021/03/30 08:16:20;;;;;;;30.73;9.35;;;18.00;42.00;;;;;;5045669;28;20175;-73
2021/03/30 08:18:48;;;;;;;21.73;8.50;;;18.60;41.80;;;;;;5047373;28;20060;-74
2021/03/30 08:21:19;;;;;;;20.33;8.43;;;17.60;42.20;;;;;;5038612;28;20633;-73
2021/03/30 08:23:52;;;;;;;16.67;7.68;;;16.90;43.20;;;;;;5043441;28;20045;-74
2021/03/30 08:26:24;;;;;;;26.63;7.67;;;16.90;43.50;;;;;;5043144;28;20060;-74
2021/03/30 08:28:58;;;;;;;15.32;7.82;;;16.60;44.20;;;;;;5045525;28;21629;-74
2021/03/30 08:31:25;;;;;;;25.02;8.80;;;16.40;44.70;;;;;;5042974;28;20053;-74
2021/03/30 08:33:56;;;;;;;19.52;7.53;;;16.40;45.40;;;;;;5047664;28;20048;-74
2021/03/30 08:36:23;;;;;;;;;;;17.20;44.60;;;;;;5049092;28;20053;-74
2021/03/30 08:38:52;;;;;;;22.15;8.23;;;17.60;43.20;;;;;;5046182;28;19944;-75
2021/03/30 08:41:43;;;;;;;19.65;8.55;;;17.20;44.60;;;;;;5050121;28;20048;-74
2021/03/30 08:44:14;;;;;;;24.13;9.20;;;16.70;45.10;;;;;;5042451;28;20996;-74
2021/03/30 08:46:43;;;;;;;25.08;10.07;;;17.00;45.10;;;;;;5047192;28;20052;-74
2021/03/30 08:49:37;;;;;;;23.33;10.50;;;17.20;44.60;;;;;;5046694;28;20083;-74
2021/03/30 08:52:10;;;;;;;25.65;10.85;;;17.40;44.40;;;;;;5039702;28;20443;-74
2021/03/30 08:54:54;;;;;;;23.33;11.02;;;17.20;44.50;;;;;;5045894;28;20053;-74
2021/03/30 08:57:25;;;;;;;25.92;11.75;;;17.30;45.00;;;;;;5045663;28;20045;-73
2021/03/30 08:59:52;;;;;;;31.00;11.57;;;18.30;43.60;;;;;;5041183;28;20048;-75
2021/03/30 09:02:26;;;;;;;30.90;11.15;;;19.10;41.70;;;;;;5046957;28;20056;-74
2021/03/30 09:04:54;;;;;;;22.77;11.50;;;19.80;40.80;;;;;;5046705;28;20140;-75
2021/03/30 09:07:20;;;;;;;29.67;9.93;;;19.80;40.00;;;;;;5046626;28;20184;-74
2021/03/30 09:09:48;;;;;;;25.10;10.77;;;18.80;41.70;;;;;;5044972;28;20061;-74
2021/03/30 09:12:17;;;;;;;30.00;11.60;;;18.80;41.10;;;;;;5045591;28;20243;-74
2021/03/30 09:14:58;;;;;;;18.17;9.77;;;18.10;42.60;;;;;;5039708;28;20048;-75
2021/03/30 09:17:26;;;;;;;22.23;8.70;;;18.60;43.30;;;;;;5040477;28;20149;-74
2021/03/30 09:20:04;;;;;;;23.23;9.43;;;19.00;41.10;;;;;;5031517;28;22687;-74
2021/03/30 09:22:34;;;;;;;24.00;9.65;;;18.50;41.90;;;;;;5038517;28;20045;-73
2021/03/30 09:27:39;;;;;;;30.60;8.48;;;19.10;41.70;;;;;;5043156;28;20053;-75
2021/03/30 09:30:21;;;;;;;31.23;8.77;;;19.40;40.30;;;;;;5042852;28;20056;-74
2021/03/30 09:32:50;;;;;;;20.83;8.25;;;19.70;40.20;;;;;;5042676;28;20052;-74
2021/03/30 09:35:24;;;;;;;22.38;8.45;;;20.30;39.50;;;;;;5046644;28;20148;-79
2021/03/30 09:38:02;;;;;;;17.10;7.35;;;22.10;37.80;;;;;;5047665;28;20060;-76
2021/03/30 09:40:39;;;;;;;22.13;8.30;;;23.20;36.10;;;;;;5040855;28;20052;-77
2021/03/30 09:43:07;;;;;;;20.50;8.93;;;22.70;35.90;;;;;;5044178;28;20056;-73
2021/03/30 09:45:35;;;;;;;17.00;7.60;;;23.50;35.80;;;;;;5049100;28;20060;-73
2021/03/30 09:48:05;;;;;;;13.85;6.85;;;23.20;34.60;;;;;;5044978;28;20127;-72
2021/03/30 09:50:32;;;;;;;29.08;8.30;;;23.60;34.50;;;;;;5048472;28;20114;-74
2021/03/30 09:53:07;;;;;;;23.10;8.65;;;23.00;34.80;;;;;;5047536;28;20049;-74
2021/03/30 09:55:42;;;;;;;19.50;8.30;;;21.50;36.60;;;;;;5047058;28;20048;-76
2021/03/30 09:58:10;;;;;;;25.45;9.38;;;22.10;36.30;;;;;;5045962;28;20052;-75
2021/03/30 10:00:40;;;;;;;23.27;8.52;;;20.20;37.90;;;;;;5048490;28;20462;-76
2021/03/30 10:03:09;;;;;;;17.23;8.48;;;19.70;39.20;;;;;;5040693;28;20045;-76
2021/03/30 10:05:37;;;;;;;23.48;8.95;;;20.30;38.30;;;;;;5039344;28;20045;-74
2021/03/30 10:08:05;;;;;;;22.67;9.25;;;20.90;37.90;;;;;;5047457;28;20049;-75
2021/03/30 10:10:46;;;;;;;25.00;9.32;;;21.00;37.10;;;;;;5046422;28;20060;-76
2021/03/30 10:13:36;;;;;;;22.23;8.63;;;21.00;37.80;;;;;;5048199;28;20048;-74
2021/03/30 10:16:13;;;;;;;25.58;9.35;;;21.90;36.50;;;;;;5055476;28;20493;-74
2021/03/30 10:18:43;;;;;;;21.00;7.97;;;21.90;36.00;;;;;;5032027;28;20049;-74
2021/03/30 10:21:17;;;;;;;28.80;9.05;;;21.80;36.80;;;;;;5046303;28;20045;-78
2021/03/30 10:23:48;;;;;;;22.10;9.18;;;22.10;36.20;;;;;;5048672;28;20053;-75
2021/03/30 10:26:26;;;;;;;23.25;9.80;;;22.60;35.90;;;;;;5049302;28;20115;-75
2021/03/30 10:28:55;;;;;;;24.33;9.63;;;21.70;36.70;;;;;;5043203;28;20049;-74
2021/03/30 10:31:38;;;;;;;27.00;10.40;;;20.80;38.80;;;;;;5048749;28;20064;-75
2021/03/30 10:34:29;;;;;;;28.45;9.80;;;20.60;39.60;;;;;;5049076;28;20052;-73
2021/03/30 10:36:57;;;;;;;27.30;9.93;;;20.90;40.10;;;;;;5048334;28;20051;-77
2021/03/30 10:39:36;;;;;;;26.15;11.02;;;21.20;38.70;;;;;;5050963;28;20432;-81
2021/03/30 10:42:12;;;;;;;33.70;12.68;;;20.90;38.00;;;;;;5048243;28;20053;-76
2021/03/30 10:44:44;;;;;;;24.65;11.35;;;21.00;39.20;;;;;;5046476;28;20088;-76
2021/03/30 10:47:18;;;;;;;30.42;12.85;;;20.60;40.10;;;;;;5049906;28;20411;-74
2021/03/30 10:49:49;;;;;;;22.90;11.80;;;20.60;39.60;;;;;;5049971;28;20069;-77
2021/03/30 10:52:22;;;;;;;31.83;14.67;;;22.80;36.60;;;;;;5044277;28;20495;-78
2021/03/30 10:54:50;;;;;;;30.95;16.55;;;23.70;34.90;;;;;;5044279;28;20056;-76
2021/03/30 10:57:19;;;;;;;19.90;11.15;;;23.10;35.30;;;;;;5047772;28;20048;-76
2021/03/30 10:59:46;;;;;;;35.75;15.57;;;22.90;35.10;;;;;;5047282;28;20123;-76
2021/03/30 11:02:14;;;;;;;31.70;15.30;;;22.70;35.70;;;;;;5049311;28;20169;-78
2021/03/30 11:04:41;;;;;;;30.30;17.48;;;22.60;36.20;;;;;;5049293;28;20061;-77
2021/03/30 11:07:09;;;;;;;28.90;10.52;;;22.40;36.10;;;;;;5048052;28;20041;-77
2021/03/30 11:09:37;;;;;;;29.98;15.55;;;22.40;34.90;;;;;;5046684;28;20446;-78
2021/03/30 11:12:04;;;;;;;34.40;18.30;;;23.10;34.80;;;;;;5048053;28;20044;-76
2021/03/30 11:14:31;;;;;;;23.70;13.77;;;22.60;35.40;;;;;;5047022;28;20048;-77
2021/03/30 11:16:57;;;;;;;30.33;13.75;;;22.20;35.70;;;;;;5049545;28;20052;-77
2021/03/30 11:19:25;;;;;;;42.10;21.50;;;22.90;35.20;;;;;;5045656;28;20041;-75
2021/03/30 11:21:56;;;;;;;30.20;13.65;;;24.30;34.40;;;;;;5045696;28;20098;-80
2021/03/30 11:24:25;;;;;;;22.70;11.38;;;24.40;33.20;;;;;;5047463;28;20094;-79
2021/03/30 11:26:54;;;;;;;28.23;12.95;;;25.50;31.90;;;;;;5046344;28;20573;-79
2021/03/30 11:32:17;;;;;;;19.23;7.43;;;24.90;31.00;;;;;;5048870;28;20061;-79
2021/03/30 11:34:49;;;;;;;23.40;10.27;;;28.70;28.00;;;;;;5046448;28;20056;-79
2021/03/30 11:37:37;;;;;;;20.90;12.18;;;29.70;27.40;;;;;;5048794;28;20063;-80
2021/03/30 11:40:04;;;;;;;24.92;11.82;;;29.80;27.10;;;;;;5050189;28;20157;-80
2021/03/30 11:42:31;;;;;;;19.63;10.90;;;30.20;26.90;;;;;;5050036;28;20461;-81
2021/03/30 11:44:57;;;;;;;15.60;7.45;;;31.10;26.50;;;;;;5041451;28;20056;-76
2021/03/30 11:47:23;;;;;;;14.70;7.30;;;31.50;24.90;;;;;;5046377;28;20464;-80
2021/03/30 11:49:50;;;;;;;15.40;6.72;;;31.60;25.30;;;;;;5045207;28;20404;-80
2021/03/30 11:52:16;;;;;;;16.83;9.27;;;30.00;25.70;;;;;;5046120;28;20052;-78
2021/03/30 11:54:44;;;;;;;24.13;9.57;;;28.60;27.20;;;;;;5040200;28;20389;-81
2021/03/30 11:57:11;;;;;;;18.85;9.38;;;28.20;28.30;;;;;;5047719;28;20048;-80
2021/03/30 11:59:38;;;;;;;21.38;9.60;;;28.00;28.00;;;;;;5046133;28;20133;-80
2021/03/30 12:02:05;;;;;;;16.13;8.57;;;27.20;28.80;;;;;;5048025;28;20061;-79
2021/03/30 12:04:34;;;;;;;17.70;7.80;;;26.40;29.30;;;;;;5048975;28;20083;-77
2021/03/30 12:07:01;;;;;;;15.10;7.43;;;26.10;30.10;;;;;;5048845;28;20040;-78
2021/03/30 12:09:28;;;;;;;14.95;7.38;;;26.20;29.10;;;;;;5044207;28;20110;-80
2021/03/30 12:11:55;;;;;;;13.13;6.60;;;25.60;29.00;;;;;;5048283;28;20068;-77
2021/03/30 12:14:21;;;;;;;13.73;7.00;;;25.90;28.80;;;;;;5037468;28;20045;-78
2021/03/30 12:16:49;;;;;;;16.13;7.20;;;25.50;29.40;;;;;;5033172;28;20057;-79
2021/03/30 12:19:18;;;;;;;16.27;6.88;;;25.20;29.80;;;;;;5035339;28;20574;-79
2021/03/30 12:21:46;;;;;;;15.27;6.57;;;25.50;30.00;;;;;;5040323;28;21372;-79
2021/03/30 12:24:13;;;;;;;11.75;6.45;;;26.10;28.00;;;;;;5040586;28;20129;-81
2021/03/30 12:26:39;;;;;;;8.65;5.13;;;26.00;28.90;;;;;;5054175;28;20164;-78
2021/03/30 12:29:06;;;;;;;13.77;5.20;;;26.40;27.20;;;;;;5072242;28;20078;-77
2021/03/30 12:31:34;;;;;;;11.25;4.75;;;26.30;26.70;;;;;;5044295;28;20056;-80
2021/03/30 12:34:01;;;;;;;10.15;4.78;;;26.30;27.50;;;;;;5028961;28;20060;-81
2021/03/30 12:36:28;;;;;;;10.25;4.95;;;27.30;26.50;;;;;;5045595;28;20082;-79
2021/03/30 12:38:55;;;;;;;12.50;4.47;;;28.10;27.20;;;;;;5046104;28;20055;-79
2021/03/30 12:41:21;;;;;;;8.75;4.60;;;29.00;25.60;;;;;;5047639;28;20041;-79
2021/03/30 12:43:49;;;;;;;10.73;4.35;;;29.50;26.80;;;;;;5047759;28;20409;-80
2021/03/30 12:46:16;;;;;;;7.93;4.82;;;30.30;25.40;;;;;;5048527;28;20052;-79
2021/03/30 12:48:42;;;;;;;9.02;5.43;;;30.70;24.90;;;;;;5046358;28;20541;-80
2021/03/30 12:51:09;;;;;;;8.50;4.45;;;30.30;24.40;;;;;;5042125;28;20048;-81
2021/03/30 12:53:36;;;;;;;10.65;3.92;;;30.90;25.70;;;;;;5044126;28;20059;-79
2021/03/30 12:56:02;;;;;;;5.65;3.50;;;31.00;23.50;;;;;;5046385;28;20055;-80
2021/03/30 12:58:30;;;;;;;7.63;3.40;;;30.40;24.00;;;;;;5047805;28;20098;-79
2021/03/30 13:00:59;;;;;;;7.53;3.75;;;30.60;24.80;;;;;;5045875;28;20099;-77
2021/03/30 13:03:45;;;;;;;13.25;4.20;;;31.50;24.10;;;;;;5046370;28;20456;-80